createdAt,value
2019-02-18T00:00:50.292Z,1018.78
2019-02-18T00:01:50.916Z,1018.74
2019-02-18T00:02:51.540Z,1018.73
2019-02-18T00:03:52.115Z,1018.68
2019-02-18T00:04:52.688Z,1018.59
2019-02-18T00:05:53.260Z,1018.52
2019-02-18T00:06:53.887Z,1018.57
2019-02-18T00:07:54.460Z,1018.47
2019-02-18T00:08:55.035Z,1018.51
2019-02-18T00:09:55.609Z,1018.64
2019-02-18T00:10:56.182Z,1018.71
2019-02-18T00:11:56.764Z,1018.69
2019-02-18T00:12:57.342Z,1018.63
2019-02-18T00:13:57.915Z,1018.60
2019-02-18T00:14:58.491Z,1018.61
2019-02-18T00:15:59.066Z,1018.69
2019-02-18T00:16:59.641Z,1018.73
2019-02-18T00:18:00.217Z,1018.79
2019-02-18T00:19:00.791Z,1018.94
2019-02-18T00:20:01.419Z,1018.99
2019-02-18T00:21:01.989Z,1018.92
2019-02-18T00:22:02.562Z,1018.89
2019-02-18T00:23:03.235Z,1018.92
2019-02-18T00:24:03.767Z,1018.93
2019-02-18T00:25:04.344Z,1018.83
2019-02-18T00:26:04.917Z,1018.80
2019-02-18T00:27:05.491Z,1018.84
2019-02-18T00:28:06.065Z,1018.75
2019-02-18T00:29:06.643Z,1018.74
2019-02-18T00:30:07.212Z,1018.74
2019-02-18T00:31:07.837Z,1018.80
2019-02-18T00:32:08.410Z,1018.80
2019-02-18T00:33:09.084Z,1018.85
2019-02-18T00:34:09.706Z,1018.85
2019-02-18T00:35:10.280Z,1018.91
2019-02-18T00:36:10.852Z,1018.94
2019-02-18T00:37:11.425Z,1018.92
2019-02-18T00:38:11.998Z,1018.86
2019-02-18T00:39:12.573Z,1018.75
2019-02-18T00:40:13.151Z,1018.79
2019-02-18T00:41:13.726Z,1018.83
2019-02-18T00:42:14.300Z,1018.75
2019-02-18T00:43:14.876Z,1018.84
2019-02-18T00:44:15.448Z,1018.77
2019-02-18T00:45:16.073Z,1018.78
2019-02-18T00:46:16.648Z,1018.79
2019-02-18T00:47:17.468Z,1018.88
2019-02-18T00:48:18.083Z,1018.94
2019-02-18T00:49:18.656Z,1018.84
2019-02-18T00:50:19.230Z,1018.83
2019-02-18T00:51:19.855Z,1018.86
2019-02-18T00:52:20.430Z,1018.85
2019-02-18T00:53:21.047Z,1018.86
2019-02-18T00:54:21.669Z,1018.87
2019-02-18T00:55:22.241Z,1018.77
2019-02-18T00:56:22.817Z,1018.86
2019-02-18T00:57:23.390Z,1018.80
2019-02-18T00:58:23.960Z,1018.78
2019-02-18T00:59:24.536Z,1018.74
2019-02-18T01:00:25.111Z,1018.74
2019-02-18T01:01:25.685Z,1018.77
2019-02-18T01:02:26.255Z,1018.81
2019-02-18T01:03:26.830Z,1018.79
2019-02-18T01:04:27.401Z,1018.78
2019-02-18T01:05:27.978Z,1018.76
2019-02-18T01:06:28.550Z,1018.77
2019-02-18T01:07:34.913Z,1018.84
2019-02-18T01:08:30.696Z,1018.79
2019-02-18T01:09:31.263Z,1018.76
2019-02-18T01:10:31.890Z,1018.73
2019-02-18T01:11:32.465Z,1018.72
2019-02-18T01:12:33.039Z,1018.71
2019-02-18T01:13:33.663Z,1018.78
2019-02-18T01:14:34.237Z,1018.74
2019-02-18T01:15:34.809Z,1018.76
2019-02-18T01:16:35.384Z,1018.80
2019-02-18T01:17:35.957Z,1018.70
2019-02-18T01:18:36.529Z,1018.76
2019-02-18T01:19:37.102Z,1018.72
2019-02-18T01:20:37.674Z,1018.65
2019-02-18T01:21:38.249Z,1018.64
2019-02-18T01:22:38.823Z,1018.67
2019-02-18T01:23:39.396Z,1018.62
2019-02-18T01:24:39.969Z,1018.59
2019-02-18T01:25:40.543Z,1018.73
2019-02-18T01:26:41.117Z,1018.64
2019-02-18T01:27:41.840Z,1018.72
2019-02-18T01:28:42.416Z,1018.71
2019-02-18T01:29:42.985Z,1018.76
2019-02-18T01:30:43.609Z,1018.70
2019-02-18T01:31:44.232Z,1018.69
2019-02-18T01:32:44.806Z,1018.66
2019-02-18T01:33:45.378Z,1018.75
2019-02-18T01:34:45.952Z,1018.64
2019-02-18T01:35:46.525Z,1018.70
2019-02-18T01:36:47.146Z,1018.71
2019-02-18T01:37:47.714Z,1018.68
2019-02-18T01:38:48.291Z,1018.60
2019-02-18T01:39:48.861Z,1018.71
2019-02-18T01:40:49.435Z,1018.70
2019-02-18T01:41:50.007Z,1018.73
2019-02-18T01:42:50.632Z,1018.63
2019-02-18T01:43:51.206Z,1018.62
2019-02-18T01:44:51.828Z,1018.74
2019-02-18T01:45:52.401Z,1018.68
2019-02-18T01:46:52.974Z,1018.72
2019-02-18T01:47:53.551Z,1018.75
2019-02-18T01:48:54.124Z,1018.74
2019-02-18T01:49:54.700Z,1018.76
2019-02-18T01:50:55.275Z,1018.82
2019-02-18T01:51:55.848Z,1018.83
2019-02-18T01:52:56.422Z,1018.76
2019-02-18T01:53:56.999Z,1018.79
2019-02-18T01:54:57.624Z,1018.74
2019-02-18T01:55:58.195Z,1018.68
2019-02-18T01:56:58.767Z,1018.75
2019-02-18T01:57:59.376Z,1018.76
2019-02-18T01:58:59.949Z,1018.68
2019-02-18T02:00:00.605Z,1018.75
2019-02-18T02:01:01.150Z,1018.74
2019-02-18T02:02:01.717Z,1018.67
2019-02-18T02:03:02.290Z,1018.75
2019-02-18T02:04:02.911Z,1018.69
2019-02-18T02:05:03.485Z,1018.74
2019-02-18T02:06:04.059Z,1018.67
2019-02-18T02:07:04.634Z,1018.64
2019-02-18T02:08:05.207Z,1018.67
2019-02-18T02:09:05.781Z,1018.58
2019-02-18T02:10:06.354Z,1018.69
2019-02-18T02:11:06.936Z,1018.58
2019-02-18T02:12:07.556Z,1018.64
2019-02-18T02:13:08.125Z,1018.57
2019-02-18T02:14:08.746Z,1018.54
2019-02-18T02:15:09.318Z,1018.55
2019-02-18T02:16:09.894Z,1018.54
2019-02-18T02:17:10.466Z,1018.50
2019-02-18T02:18:11.040Z,1018.56
2019-02-18T02:19:11.662Z,1018.56
2019-02-18T02:20:12.239Z,1018.58
2019-02-18T02:21:12.812Z,1018.63
2019-02-18T02:22:13.388Z,1018.57
2019-02-18T02:23:13.962Z,1018.61
2019-02-18T02:24:14.540Z,1018.60
2019-02-18T02:25:15.108Z,1018.60
2019-02-18T02:26:15.685Z,1018.65
2019-02-18T02:27:16.262Z,1018.58
2019-02-18T02:28:16.883Z,1018.58
2019-02-18T02:29:17.454Z,1018.63
2019-02-18T02:30:18.028Z,1018.59
2019-02-18T02:31:18.633Z,1018.63
2019-02-18T02:32:19.180Z,1018.60
2019-02-18T02:33:19.794Z,1018.63
2019-02-18T02:34:20.517Z,1018.58
2019-02-18T02:35:21.091Z,1018.56
2019-02-18T02:36:21.663Z,1018.54
2019-02-18T02:37:22.235Z,1018.59
2019-02-18T02:38:22.811Z,1018.58
2019-02-18T02:39:23.386Z,1018.58
2019-02-18T02:40:23.957Z,1018.56
2019-02-18T02:41:24.533Z,1018.62
2019-02-18T02:42:25.107Z,1018.57
2019-02-18T02:43:25.679Z,1018.60
2019-02-18T02:44:26.256Z,1018.59
2019-02-18T02:45:26.828Z,1018.56
2019-02-18T02:46:27.406Z,1018.61
2019-02-18T02:47:27.974Z,1018.57
2019-02-18T02:48:28.579Z,1018.54
2019-02-18T02:49:29.195Z,1018.52
2019-02-18T02:50:29.757Z,1018.48
2019-02-18T02:51:30.332Z,1018.49
2019-02-18T02:52:30.910Z,1018.48
2019-02-18T02:53:31.480Z,1018.47
2019-02-18T02:54:32.058Z,1018.47
2019-02-18T02:55:32.630Z,1018.49
2019-02-18T02:56:33.205Z,1018.51
2019-02-18T02:57:33.776Z,1018.48
2019-02-18T02:58:34.349Z,1018.40
2019-02-18T02:59:34.965Z,1018.42
2019-02-18T03:00:35.537Z,1018.45
2019-02-18T03:01:36.160Z,1018.41
2019-02-18T03:02:36.733Z,1018.37
2019-02-18T03:03:37.306Z,1018.40
2019-02-18T03:04:37.887Z,1018.38
2019-02-18T03:05:38.453Z,1018.32
2019-02-18T03:06:39.077Z,1018.35
2019-02-18T03:07:39.603Z,1018.36
2019-02-18T03:08:40.176Z,1018.36
2019-02-18T03:09:40.775Z,1018.35
2019-02-18T03:10:41.323Z,1018.36
2019-02-18T03:11:41.902Z,1018.35
2019-02-18T03:12:42.470Z,1018.34
2019-02-18T03:13:43.043Z,1018.22
2019-02-18T03:14:43.620Z,1018.30
2019-02-18T03:15:44.210Z,1018.36
2019-02-18T03:16:44.815Z,1018.35
2019-02-18T03:17:45.388Z,1018.28
2019-02-18T03:18:45.960Z,1018.34
2019-02-18T03:19:46.530Z,1018.28
2019-02-18T03:20:47.109Z,1018.30
2019-02-18T03:21:47.680Z,1018.38
2019-02-18T03:22:48.252Z,1018.27
2019-02-18T03:23:48.827Z,1018.29
2019-02-18T03:24:49.449Z,1018.21
2019-02-18T03:25:50.026Z,1018.32
2019-02-18T03:26:50.599Z,1018.27
2019-02-18T03:27:51.174Z,1018.25
2019-02-18T03:28:51.745Z,1018.25
2019-02-18T03:29:52.321Z,1018.24
2019-02-18T03:30:52.893Z,1018.22
2019-02-18T03:31:53.523Z,1018.16
2019-02-18T03:32:54.086Z,1018.21
2019-02-18T03:33:54.660Z,1018.16
2019-02-18T03:34:55.240Z,1018.13
2019-02-18T03:35:55.856Z,1018.19
2019-02-18T03:36:56.431Z,1018.13
2019-02-18T03:37:57.054Z,1018.16
2019-02-18T03:38:57.628Z,1018.05
2019-02-18T03:39:58.202Z,1018.11
2019-02-18T03:41:03.242Z,1018.13
2019-02-18T03:42:00.344Z,1018.14
2019-02-18T03:43:00.919Z,1018.08
2019-02-18T03:44:01.496Z,1018.12
2019-02-18T03:45:02.113Z,1018.08
2019-02-18T03:46:02.684Z,1018.04
2019-02-18T03:47:03.260Z,1018.08
2019-02-18T03:48:03.875Z,1017.99
2019-02-18T03:49:04.450Z,1018.04
2019-02-18T03:50:05.024Z,1018.03
2019-02-18T03:51:05.595Z,1018.04
2019-02-18T03:52:06.170Z,1018.01
2019-02-18T03:53:06.740Z,1017.96
2019-02-18T03:54:07.314Z,1018.07
2019-02-18T03:55:07.908Z,1018.00
2019-02-18T03:56:08.460Z,1017.94
2019-02-18T03:57:09.032Z,1017.95
2019-02-18T03:58:09.603Z,1017.98
2019-02-18T03:59:10.180Z,1018.01
2019-02-18T04:00:10.750Z,1017.99
2019-02-18T04:01:11.375Z,1017.96
2019-02-18T04:02:11.947Z,1017.92
2019-02-18T04:03:12.518Z,1017.99
2019-02-18T04:04:13.092Z,1018.04
2019-02-18T04:05:13.715Z,1017.99
2019-02-18T04:06:14.291Z,1018.03
2019-02-18T04:07:14.900Z,1017.97
2019-02-18T04:08:15.481Z,1018.04
2019-02-18T04:09:16.047Z,1017.98
2019-02-18T04:10:16.622Z,1017.98
2019-02-18T04:11:17.198Z,1017.99
2019-02-18T04:12:17.774Z,1017.97
2019-02-18T04:13:18.356Z,1018.05
2019-02-18T04:14:18.964Z,1017.98
2019-02-18T04:15:19.539Z,1017.98
2019-02-18T04:16:20.145Z,1017.94
2019-02-18T04:17:20.729Z,1017.95
2019-02-18T04:18:21.302Z,1017.93
2019-02-18T04:19:21.935Z,1017.99
2019-02-18T04:20:22.546Z,1017.96
2019-02-18T04:21:23.121Z,1018.01
2019-02-18T04:22:23.698Z,1018.00
2019-02-18T04:23:24.270Z,1017.94
2019-02-18T04:24:24.847Z,1017.97
2019-02-18T04:25:25.420Z,1017.92
2019-02-18T04:26:26.032Z,1017.88
2019-02-18T04:27:26.609Z,1017.92
2019-02-18T04:28:27.178Z,1017.94
2019-02-18T04:29:27.803Z,1017.85
2019-02-18T04:30:28.388Z,1017.87
2019-02-18T04:31:29.041Z,1017.88
2019-02-18T04:32:29.581Z,1017.87
2019-02-18T04:33:30.154Z,1017.83
2019-02-18T04:34:30.726Z,1017.94
2019-02-18T04:35:31.299Z,1017.88
2019-02-18T04:36:31.870Z,1017.89
2019-02-18T04:37:32.444Z,1017.90
2019-02-18T04:38:33.015Z,1017.94
2019-02-18T04:39:33.594Z,1017.87
2019-02-18T04:40:34.213Z,1017.85
2019-02-18T04:41:34.789Z,1017.85
2019-02-18T04:42:35.363Z,1017.85
2019-02-18T04:43:35.977Z,1017.80
2019-02-18T04:44:36.553Z,1017.84
2019-02-18T04:45:37.173Z,1017.87
2019-02-18T04:46:37.749Z,1017.80
2019-02-18T04:47:38.372Z,1017.83
2019-02-18T04:48:38.943Z,1017.89
2019-02-18T04:49:39.518Z,1017.90
2019-02-18T04:50:40.094Z,1017.91
2019-02-18T04:51:40.715Z,1017.89
2019-02-18T04:52:41.324Z,1017.89
2019-02-18T04:53:41.896Z,1017.93
2019-02-18T04:54:42.475Z,1017.97
2019-02-18T04:55:43.042Z,1017.93
2019-02-18T04:56:43.613Z,1017.93
2019-02-18T04:57:44.188Z,1017.92
2019-02-18T04:58:44.758Z,1018.01
2019-02-18T04:59:45.328Z,1018.04
2019-02-18T05:00:45.904Z,1018.05
2019-02-18T05:01:46.476Z,1018.07
2019-02-18T05:02:47.047Z,1018.06
2019-02-18T05:03:47.620Z,1017.98
2019-02-18T05:04:48.243Z,1017.98
2019-02-18T05:05:48.817Z,1018.06
2019-02-18T05:06:49.388Z,1018.02
2019-02-18T05:07:49.960Z,1017.98
2019-02-18T05:08:50.535Z,1018.03
2019-02-18T05:09:51.102Z,1018.08
2019-02-18T05:10:51.676Z,1018.09
2019-02-18T05:11:52.254Z,1018.10
2019-02-18T05:12:52.871Z,1018.06
2019-02-18T05:13:53.495Z,1018.21
2019-02-18T05:14:54.064Z,1018.17
2019-02-18T05:15:54.641Z,1018.14
2019-02-18T05:16:55.216Z,1018.19
2019-02-18T05:17:55.831Z,1018.22
2019-02-18T05:18:56.410Z,1018.23
2019-02-18T05:19:57.029Z,1018.28
2019-02-18T05:20:57.619Z,1018.34
2019-02-18T05:21:58.173Z,1018.36
2019-02-18T05:22:58.746Z,1018.39
2019-02-18T05:23:59.319Z,1018.34
2019-02-18T05:24:59.902Z,1018.38
2019-02-18T05:26:00.467Z,1018.37
2019-02-18T05:27:01.040Z,1018.36
2019-02-18T05:28:01.613Z,1018.38
2019-02-18T05:29:02.227Z,1018.41
2019-02-18T05:30:02.812Z,1018.36
2019-02-18T05:31:03.399Z,1018.35
2019-02-18T05:32:04.005Z,1018.28
2019-02-18T05:33:04.578Z,1018.35
2019-02-18T05:34:05.200Z,1018.38
2019-02-18T05:35:05.771Z,1018.27
2019-02-18T05:36:06.365Z,1018.26
2019-02-18T05:37:06.915Z,1018.28
2019-02-18T05:38:07.488Z,1018.28
2019-02-18T05:39:17.518Z,1018.26
2019-02-18T05:40:09.628Z,1018.32
2019-02-18T05:41:10.200Z,1018.30
2019-02-18T05:42:10.777Z,1018.41
2019-02-18T05:43:11.544Z,1018.40
2019-02-18T05:44:12.118Z,1018.36
2019-02-18T05:45:12.690Z,1018.39
2019-02-18T05:46:13.275Z,1018.46
2019-02-18T05:47:13.835Z,1018.54
2019-02-18T05:48:14.409Z,1018.46
2019-02-18T05:49:14.990Z,1018.51
2019-02-18T05:50:15.651Z,1018.45
2019-02-18T05:51:16.222Z,1018.49
2019-02-18T05:52:16.801Z,1018.60
2019-02-18T05:53:17.468Z,1018.54
2019-02-18T05:54:18.041Z,1018.47
2019-02-18T05:55:18.617Z,1018.47
2019-02-18T05:56:19.189Z,1018.54
2019-02-18T05:57:22.687Z,1018.51
2019-02-18T05:58:21.371Z,1018.51
2019-02-18T05:59:21.955Z,1018.51
2019-02-18T06:00:22.566Z,1018.55
2019-02-18T06:01:23.179Z,1018.58
2019-02-18T06:02:23.801Z,1018.39
2019-02-18T06:03:24.373Z,1018.51
2019-02-18T06:04:24.953Z,1018.50
2019-02-18T06:05:25.560Z,1018.43
2019-02-18T06:06:26.131Z,1018.43
2019-02-18T06:07:26.708Z,1018.45
2019-02-18T06:08:27.326Z,1018.40
2019-02-18T06:09:30.160Z,1018.42
2019-02-18T06:10:29.461Z,1018.43
2019-02-18T06:11:30.033Z,1018.41
2019-02-18T06:12:30.605Z,1018.47
2019-02-18T06:13:31.179Z,1018.47
2019-02-18T06:14:31.805Z,1018.45
2019-02-18T06:15:32.376Z,1018.45
2019-02-18T06:16:32.949Z,1018.45
2019-02-18T06:17:33.571Z,1018.49
2019-02-18T06:18:34.194Z,1018.51
2019-02-18T06:19:34.771Z,1018.50
2019-02-18T06:20:35.431Z,1018.42
2019-02-18T06:21:35.956Z,1018.47
2019-02-18T06:22:38.484Z,1018.42
2019-02-18T06:23:37.141Z,1018.36
2019-02-18T06:24:37.713Z,1018.34
2019-02-18T06:25:38.290Z,1018.27
2019-02-18T06:26:38.862Z,1018.19
2019-02-18T06:27:39.434Z,1018.26
2019-02-18T06:28:40.018Z,1018.23
2019-02-18T06:29:40.582Z,1018.20
2019-02-18T06:30:41.206Z,1018.25
2019-02-18T06:31:41.832Z,1018.27
2019-02-18T06:32:42.455Z,1018.24
2019-02-18T06:33:43.023Z,1018.31
2019-02-18T06:34:43.646Z,1018.30
2019-02-18T06:35:44.327Z,1018.30
2019-02-18T06:36:44.862Z,1018.24
2019-02-18T06:37:45.434Z,1018.25
2019-02-18T06:38:46.008Z,1018.22
2019-02-18T06:39:46.579Z,1018.23
2019-02-18T06:40:47.153Z,1018.23
2019-02-18T06:41:47.729Z,1018.22
2019-02-18T06:42:48.340Z,1018.20
2019-02-18T06:43:48.913Z,1018.25
2019-02-18T06:44:49.533Z,1018.20
2019-02-18T06:45:50.061Z,1018.20
2019-02-18T06:46:50.635Z,1018.26
2019-02-18T06:47:51.207Z,1018.34
2019-02-18T06:48:51.779Z,1018.34
2019-02-18T06:49:52.350Z,1018.30
2019-02-18T06:50:52.976Z,1018.32
2019-02-18T06:51:53.548Z,1018.26
2019-02-18T06:52:54.122Z,1018.40
2019-02-18T06:53:54.692Z,1018.37
2019-02-18T06:54:55.269Z,1018.42
2019-02-18T06:55:55.842Z,1018.39
2019-02-18T06:56:56.454Z,1018.37
2019-02-18T06:57:57.027Z,1018.39
2019-02-18T06:58:57.603Z,1018.42
2019-02-18T06:59:58.171Z,1018.33
2019-02-18T07:00:58.748Z,1018.31
2019-02-18T07:01:59.321Z,1018.33
2019-02-18T07:02:59.891Z,1018.39
2019-02-18T07:04:00.465Z,1018.40
2019-02-18T07:05:01.036Z,1018.37
2019-02-18T07:06:01.608Z,1018.41
2019-02-18T07:07:02.185Z,1018.43
2019-02-18T07:08:02.754Z,1018.43
2019-02-18T07:09:03.324Z,1018.42
2019-02-18T07:10:03.898Z,1018.47
2019-02-18T07:11:04.470Z,1018.52
2019-02-18T07:12:05.043Z,1018.45
2019-02-18T07:13:05.617Z,1018.46
2019-02-18T07:14:06.187Z,1018.47
2019-02-18T07:15:07.610Z,1018.48
2019-02-18T07:16:08.181Z,1018.57
2019-02-18T07:17:10.414Z,1018.55
2019-02-18T07:18:10.322Z,1018.54
2019-02-18T07:19:10.894Z,1018.60
2019-02-18T07:20:11.468Z,1018.59
2019-02-18T07:21:12.043Z,1018.60
2019-02-18T07:22:12.656Z,1018.60
2019-02-18T07:23:13.231Z,1018.63
2019-02-18T07:24:15.362Z,1018.58
2019-02-18T07:25:15.371Z,1018.64
2019-02-18T07:26:15.943Z,1018.61
2019-02-18T07:27:16.516Z,1018.63
2019-02-18T07:28:17.087Z,1018.63
2019-02-18T07:29:17.667Z,1018.63
2019-02-18T07:30:18.284Z,1018.61
2019-02-18T07:31:18.859Z,1018.59
2019-02-18T07:32:19.432Z,1018.72
2019-02-18T07:33:20.057Z,1018.73
2019-02-18T07:34:20.683Z,1018.72
2019-02-18T07:35:21.303Z,1018.77
2019-02-18T07:36:21.916Z,1018.74
2019-02-18T07:37:22.488Z,1018.88
2019-02-18T07:38:23.061Z,1018.94
2019-02-18T07:39:23.637Z,1018.86
2019-02-18T07:40:24.300Z,1018.88
2019-02-18T07:41:24.872Z,1018.89
2019-02-18T07:42:25.443Z,1018.94
2019-02-18T07:43:26.016Z,1018.93
2019-02-18T07:44:26.588Z,1018.97
2019-02-18T07:45:27.161Z,1018.97
2019-02-18T07:46:27.733Z,1019.03
2019-02-18T07:47:28.306Z,1018.99
2019-02-18T07:48:28.880Z,1019.09
2019-02-18T07:49:29.447Z,1019.08
2019-02-18T07:50:30.023Z,1019.20
2019-02-18T07:51:30.644Z,1019.15
2019-02-18T07:54:34.332Z,1019.26
2019-02-18T07:56:36.455Z,1019.31
2019-02-18T07:57:37.080Z,1019.25
2019-02-18T07:59:03.417Z,1019.27
2019-02-18T08:01:27.311Z,1019.31
2019-02-18T08:02:49.648Z,1019.32
2019-02-18T08:08:17.217Z,1019.34
2019-02-18T08:09:17.783Z,1019.37
2019-02-18T08:10:18.348Z,1019.39
2019-02-18T08:11:18.916Z,1019.37
2019-02-18T08:12:19.631Z,1019.36
2019-02-18T08:13:20.196Z,1019.38
2019-02-18T08:14:20.763Z,1019.44
2019-02-18T08:15:21.340Z,1019.51
2019-02-18T08:16:21.893Z,1019.45
2019-02-18T08:17:22.461Z,1019.45
2019-02-18T08:18:23.071Z,1019.40
2019-02-18T08:19:23.658Z,1019.39
2019-02-18T08:20:24.224Z,1019.46
2019-02-18T08:21:24.791Z,1019.47
2019-02-18T08:22:25.356Z,1019.47
2019-02-18T08:23:25.926Z,1019.46
2019-02-18T08:24:26.492Z,1019.51
2019-02-18T08:25:27.059Z,1019.49
2019-02-18T08:26:27.634Z,1019.43
2019-02-18T08:27:28.259Z,1019.53
2019-02-18T08:28:28.815Z,1019.47
2019-02-18T08:29:29.380Z,1019.43
2019-02-18T08:30:29.947Z,1019.50
2019-02-18T08:31:30.515Z,1019.45
2019-02-18T08:32:31.084Z,1019.42
2019-02-18T08:33:31.652Z,1019.45
2019-02-18T08:34:32.220Z,1019.47
2019-02-18T08:35:32.788Z,1019.44
2019-02-18T08:36:33.421Z,1019.50
2019-02-18T08:37:33.990Z,1019.55
2019-02-18T08:38:39.612Z,1019.56
2019-02-18T08:39:40.225Z,1019.57
2019-02-18T08:40:40.794Z,1019.58
2019-02-18T08:41:41.363Z,1019.54
2019-02-18T08:42:41.929Z,1019.59
2019-02-18T08:43:42.545Z,1019.60
2019-02-18T08:44:43.112Z,1019.60
2019-02-18T08:45:43.678Z,1019.60
2019-02-18T08:46:44.250Z,1019.70
2019-02-18T08:47:44.856Z,1019.70
2019-02-18T08:48:45.474Z,1019.65
2019-02-18T08:49:46.044Z,1019.72
2019-02-18T08:50:46.609Z,1019.62
2019-02-18T08:51:47.176Z,1019.67
2019-02-18T08:52:47.744Z,1019.70
2019-02-18T08:53:48.312Z,1019.75
2019-02-18T08:54:56.192Z,1019.70
2019-02-18T08:55:50.539Z,1019.66
2019-02-18T08:56:51.106Z,1019.76
2019-02-18T08:57:51.679Z,1019.68
2019-02-18T08:58:52.245Z,1019.70
2019-02-18T08:59:52.813Z,1019.76
2019-02-18T09:01:02.328Z,1019.79
2019-02-18T09:01:54.945Z,1019.84
2019-02-18T09:02:55.514Z,1019.56
2019-02-18T09:03:56.084Z,1019.79
2019-02-18T09:04:56.652Z,1019.83
2019-02-18T09:05:57.272Z,1019.82
2019-02-18T09:06:57.839Z,1019.82
2019-02-18T09:07:58.408Z,1019.86
2019-02-18T09:08:58.976Z,1019.79
2019-02-18T09:09:59.544Z,1019.81
2019-02-18T09:11:00.118Z,1019.83
2019-02-18T09:12:00.685Z,1019.90
2019-02-18T09:13:01.293Z,1019.89
2019-02-18T09:14:01.903Z,1019.84
2019-02-18T09:15:02.471Z,1019.86
2019-02-18T09:16:03.039Z,1019.89
2019-02-18T09:17:03.604Z,1019.84
2019-02-18T09:18:04.224Z,1019.84
2019-02-18T09:19:04.792Z,1019.85
2019-02-18T09:20:05.368Z,1019.90
2019-02-18T09:21:05.928Z,1019.90
2019-02-18T09:22:06.494Z,1020.02
2019-02-18T09:23:07.060Z,1020.04
2019-02-18T09:24:07.629Z,1019.97
2019-02-18T09:25:08.197Z,1020.07
2019-02-18T09:26:08.770Z,1020.04
2019-02-18T09:27:09.338Z,1020.08
2019-02-18T09:28:09.906Z,1020.01
2019-02-18T09:29:10.474Z,1020.07
2019-02-18T09:30:11.091Z,1020.09
2019-02-18T09:31:11.665Z,1020.06
2019-02-18T09:32:12.231Z,1020.12
2019-02-18T09:33:12.797Z,1020.03
2019-02-18T09:34:13.371Z,1020.12
2019-02-18T09:35:14.141Z,1020.09
2019-02-18T09:36:14.760Z,1020.09
2019-02-18T09:37:15.327Z,1020.12
2019-02-18T09:38:24.332Z,1020.23
2019-02-18T09:39:17.461Z,1020.14
2019-02-18T09:40:18.067Z,1020.14
2019-02-18T09:41:18.636Z,1020.11
2019-02-18T09:42:19.203Z,1020.23
2019-02-18T09:43:19.770Z,1020.16
2019-02-18T09:44:20.339Z,1020.27
2019-02-18T09:45:20.912Z,1020.15
2019-02-18T09:46:21.473Z,1020.24
2019-02-18T09:47:22.091Z,1020.28
2019-02-18T09:48:22.657Z,1020.22
2019-02-18T09:49:23.224Z,1020.24
2019-02-18T09:50:23.795Z,1020.26
2019-02-18T09:51:24.364Z,1020.30
2019-02-18T09:52:24.926Z,1020.23
2019-02-18T09:53:25.545Z,1020.28
2019-02-18T09:54:26.112Z,1020.34
2019-02-18T09:55:26.728Z,1020.28
2019-02-18T09:56:27.296Z,1020.28
2019-02-18T09:57:27.862Z,1020.33
2019-02-18T09:58:28.429Z,1020.35
2019-02-18T09:59:29.000Z,1020.35
2019-02-18T10:00:29.572Z,1020.41
2019-02-18T10:01:30.139Z,1020.33
2019-02-18T10:02:30.704Z,1020.40
2019-02-18T10:03:32.070Z,1020.41
2019-02-18T10:04:32.836Z,1020.37
2019-02-18T10:05:33.407Z,1020.36
2019-02-18T10:06:33.971Z,1020.33
2019-02-18T10:07:34.541Z,1020.26
2019-02-18T10:08:35.114Z,1020.23
2019-02-18T10:09:35.729Z,1020.21
2019-02-18T10:10:36.303Z,1020.20
2019-02-18T10:11:36.915Z,1020.26
2019-02-18T10:12:37.491Z,1020.19
2019-02-18T10:13:38.053Z,1020.19
2019-02-18T10:14:38.622Z,1020.14
2019-02-18T10:15:39.232Z,1020.22
2019-02-18T10:16:39.850Z,1020.17
2019-02-18T10:17:40.420Z,1020.27
2019-02-18T10:18:40.988Z,1020.27
2019-02-18T10:19:43.092Z,1020.25
2019-02-18T10:20:43.118Z,1020.22
2019-02-18T10:21:43.686Z,1020.34
2019-02-18T10:22:44.254Z,1020.25
2019-02-18T10:23:44.826Z,1020.23
2019-02-18T10:24:50.464Z,1020.25
2019-02-18T10:25:46.951Z,1020.23
2019-02-18T10:26:47.570Z,1020.22
2019-02-18T10:27:48.139Z,1020.25
2019-02-18T10:28:48.794Z,1020.26
2019-02-18T10:29:49.318Z,1020.24
2019-02-18T10:30:49.886Z,1020.26
2019-02-18T10:31:50.453Z,1020.25
2019-02-18T10:32:51.022Z,1020.31
2019-02-18T10:33:51.590Z,1020.33
2019-02-18T10:34:52.158Z,1020.35
2019-02-18T10:35:52.726Z,1020.38
2019-02-18T10:36:53.346Z,1020.38
2019-02-18T10:37:55.113Z,1020.42
2019-02-18T10:38:55.469Z,1020.46
2019-02-18T10:39:56.039Z,1020.43
2019-02-18T10:41:06.583Z,1020.36
2019-02-18T10:41:58.269Z,1020.45
2019-02-18T10:42:58.835Z,1020.51
2019-02-18T10:43:59.403Z,1020.46
2019-02-18T10:44:59.975Z,1020.51
2019-02-18T10:46:00.546Z,1020.55
2019-02-18T10:47:01.113Z,1020.51
2019-02-18T10:48:01.683Z,1020.54
2019-02-18T10:49:02.250Z,1020.57
2019-02-18T10:50:02.822Z,1020.55
2019-02-18T10:51:03.399Z,1020.58
2019-02-18T10:52:04.003Z,1020.58
2019-02-18T10:53:04.622Z,1020.56
2019-02-18T10:54:05.192Z,1020.56
2019-02-18T10:55:05.763Z,1020.67
2019-02-18T10:56:06.613Z,1020.59
2019-02-18T10:57:07.228Z,1020.64
2019-02-18T10:58:07.844Z,1020.62
2019-02-18T10:59:08.414Z,1020.60
2019-02-18T11:00:08.984Z,1020.64
2019-02-18T11:01:09.552Z,1020.68
2019-02-18T11:02:10.121Z,1020.65
2019-02-18T11:03:10.690Z,1020.77
2019-02-18T11:04:11.573Z,1020.77
2019-02-18T11:05:12.138Z,1020.72
2019-02-18T11:06:12.705Z,1020.78
2019-02-18T11:07:13.274Z,1020.74
2019-02-18T11:08:13.843Z,1020.77
2019-02-18T11:09:14.411Z,1020.77
2019-02-18T11:10:14.981Z,1020.84
2019-02-18T11:11:17.201Z,1020.78
2019-02-18T11:12:17.113Z,1020.74
2019-02-18T11:13:17.681Z,1020.74
2019-02-18T11:14:18.248Z,1020.80
2019-02-18T11:15:18.819Z,1020.74
2019-02-18T11:16:19.573Z,1020.79
2019-02-18T11:17:20.139Z,1020.73
2019-02-18T11:18:20.707Z,1020.82
2019-02-18T11:19:21.274Z,1020.75
2019-02-18T11:20:21.844Z,1020.78
2019-02-18T11:21:22.413Z,1020.78
2019-02-18T11:22:22.980Z,1020.82
2019-02-18T11:23:23.562Z,1020.88
2019-02-18T11:24:24.130Z,1020.95
2019-02-18T11:25:24.939Z,1020.90
2019-02-18T11:26:25.509Z,1020.89
2019-02-18T11:27:26.081Z,1020.79
2019-02-18T11:28:26.700Z,1020.88
2019-02-18T11:29:27.320Z,1020.87
2019-02-18T11:30:27.889Z,1020.88
2019-02-18T11:31:28.500Z,1020.91
2019-02-18T11:32:29.069Z,1020.89
2019-02-18T11:33:29.635Z,1020.80
2019-02-18T11:34:30.557Z,1020.90
2019-02-18T11:35:31.128Z,1020.88
2019-02-18T11:36:31.738Z,1020.86
2019-02-18T11:37:32.307Z,1020.82
2019-02-18T11:38:32.874Z,1020.82
2019-02-18T11:39:33.444Z,1020.74
2019-02-18T11:40:34.020Z,1020.84
2019-02-18T11:41:34.595Z,1020.98
2019-02-18T11:42:37.387Z,1020.90
2019-02-18T11:43:36.952Z,1020.84
2019-02-18T11:44:37.527Z,1020.82
2019-02-18T11:45:38.103Z,1020.87
2019-02-18T11:46:38.681Z,1020.82
2019-02-18T11:47:39.305Z,1020.82
2019-02-18T11:48:39.879Z,1020.95
2019-02-18T11:49:40.455Z,1020.89
2019-02-18T11:50:41.080Z,1020.95
2019-02-18T11:51:42.013Z,1020.99
2019-02-18T11:52:42.656Z,1020.86
2019-02-18T11:53:43.203Z,1020.90
2019-02-18T11:54:43.778Z,1020.83
2019-02-18T11:55:44.399Z,1020.80
2019-02-18T11:56:44.972Z,1020.87
2019-02-18T11:57:45.548Z,1020.82
2019-02-18T11:58:46.121Z,1020.88
2019-02-18T11:59:46.698Z,1020.92
2019-02-18T12:00:47.402Z,1020.94
2019-02-18T12:01:47.976Z,1021.00
2019-02-18T12:02:48.549Z,1021.00
2019-02-18T12:03:49.131Z,1021.01
2019-02-18T12:04:49.701Z,1021.00
2019-02-18T12:05:50.271Z,1021.00
2019-02-18T12:06:50.845Z,1020.95
2019-02-18T12:07:51.419Z,1021.03
2019-02-18T12:08:52.297Z,1021.02
2019-02-18T12:09:52.868Z,1021.05
2019-02-18T12:10:53.442Z,1021.00
2019-02-18T12:11:54.012Z,1021.11
2019-02-18T12:12:55.915Z,1021.09
2019-02-18T12:13:56.217Z,1021.09
2019-02-18T12:14:56.816Z,1021.11
2019-02-18T12:15:57.390Z,1021.13
2019-02-18T12:16:58.246Z,1021.08
2019-02-18T12:17:58.817Z,1021.11
2019-02-18T12:18:59.389Z,1021.02
2019-02-18T12:19:59.961Z,1021.08
2019-02-18T12:21:00.533Z,1021.02
2019-02-18T12:22:01.156Z,1021.10
2019-02-18T12:23:01.731Z,1021.01